KHST/HST METAR and TAF weather

Enter ICAO airport designator
Station Type Date Time Source
KHST METAR 2020/09/28 07:56 UTC NOAA

KHST 280756Z AUTO 00000KT 10SM CLR 25/25 A2985 RMK AO2 SLP112 T02540249


Station Type Date Time Source
KHST Decoded METAR 2020/09/28 07:56 UTC NOAA

Homestead Air Force Base, FL, United States (KHST) 25-29N 080-23W
Sep 28, 2020 - 03:56 AM EDT / 2020.09.28 0756 UTC
Wind: Calm:0
Visibility: 10 mile(s):0
Sky conditions: clear
Temperature: 77.7 F (25.4 C)
Dew Point: 76.8 F (24.9 C)
Relative Humidity: 97%
Pressure (altimeter): 29.85 in. Hg (1010 hPa)
ob: KHST 280756Z AUTO 00000KT 10SM CLR 25/25 A2985 RMK AO2 SLP112 T02540249
cycle: 8

Station Type Date Time Source
KHST TAF 2020/09/28 03:18 UTC NOAA

TAF KHST 280300Z 2803/2909 VRB06KT 9999 SCT030 QNH2985INS
BECMG 2815/2816 12009KT 9999 SCT025 QNH2986INS
TEMPO 2819/2823 VRB10G15KT 9000 -TSRA BKN025CB
BECMG 2823/2824 VRB06KT 9999 BKN025 QNH2987INS TX32/2819Z TN24/2810Z

Example: see airport list